Terminal Aerodrome Forecast
Issued by NWS

Home | Current Version | Previous Version | Text Only | Print | Product List | Glossary On
Versions: 1 2 3 4 5 6 7 8 9 10 11 12 13 14 15 16 17 18 19 20 21 22 23 24 25 26 27 28 29 30 31 32 33 34 35
000
FTUS41 KCTP 031758
TAFBFD
TAF
KBFD 031758Z 0318/0418 30010G16KT P6SM -SN BKN012 OVC020
      TEMPO 0319/0322 3SM -SHSN OVC011
     FM032200 30007KT 4SM -SHSN OVC013=

USA.gov is the U.S. government's official web portal to all federal, state and local government web resources and services.